createdAt,value
2023-04-29T00:01:37.758Z,6.55
2023-04-29T00:04:06.188Z,6.05
2023-04-29T00:06:33.203Z,6.53
2023-04-29T00:09:00.145Z,7.00
2023-04-29T00:11:26.990Z,7.65
2023-04-29T00:13:53.813Z,7.68
2023-04-29T00:16:20.731Z,7.32
2023-04-29T00:18:47.513Z,8.00
2023-04-29T00:21:14.313Z,6.47
2023-04-29T00:23:41.091Z,7.13
2023-04-29T00:26:07.919Z,7.63
2023-04-29T00:28:34.667Z,7.30
2023-04-29T00:31:01.484Z,7.78
2023-04-29T00:33:28.279Z,6.72
2023-04-29T00:35:55.077Z,7.45
2023-04-29T00:38:21.966Z,7.07
2023-04-29T00:40:48.931Z,7.22
2023-04-29T00:43:15.867Z,7.30
2023-04-29T00:45:42.909Z,7.70
2023-04-29T00:48:09.796Z,7.82
2023-04-29T00:50:36.848Z,7.65
2023-04-29T00:53:04.188Z,7.18
2023-04-29T00:55:32.990Z,7.40
2023-04-29T00:58:00.665Z,7.80
2023-04-29T01:00:28.119Z,6.78
2023-04-29T01:02:57.465Z,7.72
2023-04-29T01:05:25.225Z,8.65
2023-04-29T01:08:10.456Z,7.63
2023-04-29T01:10:47.085Z,7.65
2023-04-29T01:13:18.168Z,7.25
2023-04-29T01:15:59.018Z,7.68
2023-04-29T01:18:39.276Z,7.68
2023-04-29T01:21:06.316Z,7.35
2023-04-29T01:23:33.026Z,7.53
2023-04-29T01:26:00.089Z,7.25
2023-04-29T01:28:39.271Z,7.43
2023-04-29T01:31:19.899Z,7.65
2023-04-29T01:34:06.111Z,8.40
2023-04-29T01:36:57.449Z,7.47
2023-04-29T01:39:37.022Z,7.68
2023-04-29T01:42:14.928Z,7.77
2023-04-29T01:44:43.608Z,8.20
2023-04-29T01:47:13.800Z,7.82
2023-04-29T01:49:41.065Z,6.95
2023-04-29T01:52:07.906Z,7.25
2023-04-29T01:54:38.309Z,7.97
2023-04-29T01:57:05.040Z,7.22
2023-04-29T01:59:31.894Z,7.40
2023-04-29T02:01:59.045Z,7.82
2023-04-29T02:04:26.379Z,7.40
2023-04-29T02:06:53.118Z,8.57
2023-04-29T02:09:19.897Z,7.05
2023-04-29T02:11:46.651Z,7.82
2023-04-29T02:14:13.834Z,8.00
2023-04-29T02:16:40.900Z,7.40
2023-04-29T02:19:07.615Z,7.28
2023-04-29T02:21:35.189Z,7.72
2023-04-29T02:24:03.966Z,7.88
2023-04-29T02:26:30.802Z,7.38
2023-04-29T02:28:57.985Z,7.65
2023-04-29T02:31:24.891Z,8.18
2023-04-29T02:33:51.678Z,6.82
2023-04-29T02:36:18.469Z,7.47
2023-04-29T02:38:45.162Z,7.65
2023-04-29T02:41:17.095Z,7.50
2023-04-29T02:43:44.518Z,7.57
2023-04-29T02:46:11.566Z,7.53
2023-04-29T02:48:38.437Z,6.85
2023-04-29T02:51:05.198Z,7.90
2023-04-29T02:53:32.646Z,8.80
2023-04-29T02:55:59.509Z,7.65
2023-04-29T02:58:27.008Z,8.35
2023-04-29T03:00:53.920Z,7.63
2023-04-29T03:03:20.803Z,7.47
2023-04-29T03:05:47.612Z,8.07
2023-04-29T03:08:15.349Z,7.63
2023-04-29T03:10:42.830Z,8.32
2023-04-29T03:13:09.603Z,7.60
2023-04-29T03:15:37.025Z,8.68
2023-04-29T03:18:04.946Z,7.90
2023-04-29T03:20:32.704Z,7.28
2023-04-29T03:23:00.901Z,7.85
2023-04-29T03:25:28.701Z,7.88
2023-04-29T03:27:55.448Z,8.02
2023-04-29T03:30:22.365Z,7.70
2023-04-29T03:32:49.359Z,8.55
2023-04-29T03:35:16.229Z,8.90
2023-04-29T03:37:44.720Z,8.32
2023-04-29T03:40:12.457Z,7.20
2023-04-29T03:42:39.247Z,8.23
2023-04-29T03:45:06.895Z,6.88
2023-04-29T03:47:33.801Z,8.43
2023-04-29T03:50:00.630Z,7.95
2023-04-29T03:52:27.592Z,9.07
2023-04-29T03:54:54.437Z,7.80
2023-04-29T03:57:21.216Z,7.40
2023-04-29T03:59:50.747Z,7.75
2023-04-29T04:02:19.231Z,7.70
2023-04-29T04:04:46.272Z,7.35
2023-04-29T04:07:13.211Z,8.55
2023-04-29T04:09:39.944Z,8.02
2023-04-29T04:12:06.893Z,9.13
2023-04-29T04:14:34.774Z,8.10
2023-04-29T04:17:01.578Z,8.70
2023-04-29T04:19:29.253Z,8.77
2023-04-29T04:21:56.320Z,7.88
2023-04-29T04:24:23.540Z,7.50
2023-04-29T04:26:50.382Z,7.57
2023-04-29T04:29:17.316Z,8.23
2023-04-29T04:31:46.311Z,8.00
2023-04-29T04:34:14.182Z,8.70
2023-04-29T04:36:41.427Z,8.07
2023-04-29T04:39:08.443Z,7.60
2023-04-29T04:41:35.859Z,7.60
2023-04-29T04:44:03.093Z,7.45
2023-04-29T04:46:29.852Z,6.93
2023-04-29T04:48:56.785Z,8.50
2023-04-29T04:51:23.507Z,8.05
2023-04-29T04:53:52.716Z,8.35
2023-04-29T04:56:21.176Z,7.35
2023-04-29T04:58:47.917Z,8.27
2023-04-29T05:01:14.757Z,8.90
2023-04-29T05:03:41.675Z,8.63
2023-04-29T05:06:08.550Z,7.13
2023-04-29T05:08:35.378Z,8.38
2023-04-29T05:11:02.133Z,7.10
2023-04-29T05:13:29.091Z,7.63
2023-04-29T05:15:56.215Z,7.38
2023-04-29T05:18:22.935Z,6.97
2023-04-29T05:20:49.762Z,7.30
2023-04-29T05:23:16.719Z,6.53
2023-04-29T05:25:43.848Z,6.40
2023-04-29T05:28:10.614Z,6.25
2023-04-29T05:30:40.556Z,7.82
2023-04-29T05:33:07.845Z,6.47
2023-04-29T05:35:34.931Z,6.47
2023-04-29T05:38:01.589Z,6.97
2023-04-29T05:40:28.313Z,6.22
2023-04-29T05:42:55.241Z,6.68
2023-04-29T05:45:22.142Z,6.88
2023-04-29T05:47:49.164Z,6.88
2023-04-29T05:50:15.860Z,6.32
2023-04-29T05:52:42.650Z,6.97
2023-04-29T05:55:09.797Z,6.70
2023-04-29T05:57:36.530Z,6.38
2023-04-29T06:00:03.905Z,6.70
2023-04-29T06:02:31.106Z,7.10
2023-04-29T06:04:58.138Z,6.78
2023-04-29T06:07:25.902Z,6.72
2023-04-29T06:09:52.876Z,6.93
2023-04-29T06:12:19.735Z,6.93
2023-04-29T06:14:46.579Z,6.97
2023-04-29T06:17:13.276Z,6.55
2023-04-29T06:19:40.124Z,7.35
2023-04-29T06:22:08.426Z,6.93
2023-04-29T06:24:35.263Z,7.20
2023-04-29T06:27:04.312Z,7.38
2023-04-29T06:29:31.098Z,6.80
2023-04-29T06:31:57.815Z,7.00
2023-04-29T06:34:24.573Z,7.72
2023-04-29T06:36:51.356Z,6.45
2023-04-29T06:39:18.253Z,6.63
2023-04-29T06:41:44.977Z,6.47
2023-04-29T06:44:12.100Z,6.90
2023-04-29T06:46:39.302Z,6.00
2023-04-29T06:49:07.037Z,6.82
2023-04-29T06:51:33.909Z,6.35
2023-04-29T06:54:00.619Z,6.72
2023-04-29T06:56:27.406Z,6.25
2023-04-29T06:58:54.326Z,6.15
2023-04-29T07:01:21.509Z,6.68
2023-04-29T07:03:48.430Z,7.18
2023-04-29T07:06:15.365Z,6.40
2023-04-29T07:08:42.122Z,6.10
2023-04-29T07:11:08.878Z,5.75
2023-04-29T07:13:35.721Z,6.28
2023-04-29T07:16:02.435Z,6.05
2023-04-29T07:18:29.170Z,6.38
2023-04-29T07:21:00.404Z,6.10
2023-04-29T07:23:27.276Z,6.60
2023-04-29T07:25:53.945Z,6.32
2023-04-29T07:28:20.602Z,6.15
2023-04-29T07:30:47.300Z,5.65
2023-04-29T07:33:14.075Z,6.13
2023-04-29T07:35:43.272Z,6.30
2023-04-29T07:38:10.204Z,6.68
2023-04-29T07:40:36.972Z,5.70
2023-04-29T07:43:05.853Z,6.10
2023-04-29T07:45:32.602Z,6.13
2023-04-29T07:47:59.534Z,5.93
2023-04-29T07:50:26.263Z,5.93
2023-04-29T07:52:55.116Z,5.75
2023-04-29T07:55:21.844Z,5.30
2023-04-29T07:57:48.584Z,7.25
2023-04-29T08:00:15.579Z,6.43
2023-04-29T08:02:44.104Z,6.57
2023-04-29T08:05:11.320Z,6.45
2023-04-29T08:07:38.223Z,6.90
2023-04-29T08:10:05.352Z,10.65
2023-04-29T08:12:32.113Z,11.32
2023-04-29T08:14:58.798Z,6.57
2023-04-29T08:17:25.510Z,8.60
2023-04-29T08:19:52.190Z,5.90
2023-04-29T08:22:19.539Z,6.95
2023-04-29T08:24:46.363Z,5.22
2023-04-29T08:27:13.076Z,5.60
2023-04-29T08:29:39.991Z,5.93
2023-04-29T08:32:07.021Z,4.75
2023-04-29T08:34:36.371Z,5.75
2023-04-29T08:37:03.523Z,6.40
2023-04-29T08:39:34.889Z,4.30
2023-04-29T08:42:12.484Z,5.30
2023-04-29T08:44:42.573Z,6.93
2023-04-29T08:47:10.038Z,5.60
2023-04-29T08:49:41.176Z,5.80
2023-04-29T08:52:10.706Z,7.38
2023-04-29T08:54:42.876Z,5.50
2023-04-29T08:57:14.745Z,8.00
2023-04-29T08:59:46.075Z,9.15
2023-04-29T09:02:20.575Z,5.70
2023-04-29T09:05:12.295Z,8.27
2023-04-29T09:07:42.534Z,5.53
2023-04-29T09:10:18.506Z,4.80
2023-04-29T09:12:57.380Z,4.78
2023-04-29T09:15:26.835Z,5.47
2023-04-29T09:17:53.826Z,6.88
2023-04-29T09:20:23.732Z,6.03
2023-04-29T09:22:51.337Z,4.60
2023-04-29T09:25:18.195Z,5.72
2023-04-29T09:27:45.248Z,4.82
2023-04-29T09:30:16.828Z,4.95
2023-04-29T09:33:11.157Z,4.78
2023-04-29T09:35:53.456Z,4.75
2023-04-29T09:38:21.401Z,4.95
2023-04-29T09:40:59.132Z,5.88
2023-04-29T09:43:47.356Z,5.65
2023-04-29T09:46:14.885Z,5.28
2023-04-29T09:49:01.771Z,4.75
2023-04-29T09:51:48.048Z,4.97
2023-04-29T09:54:22.464Z,4.57
2023-04-29T09:56:54.855Z,6.53
2023-04-29T09:59:22.760Z,4.72
2023-04-29T10:01:54.851Z,4.65
2023-04-29T10:04:23.603Z,4.80
2023-04-29T10:06:53.528Z,4.80
2023-04-29T10:09:23.722Z,4.72
2023-04-29T10:14:23.041Z,5.40
2023-04-29T10:17:02.216Z,4.70
2023-04-29T10:19:36.572Z,4.50
2023-04-29T10:22:17.000Z,5.43
2023-04-29T10:24:45.171Z,4.78
2023-04-29T10:27:13.143Z,4.53
2023-04-29T10:29:41.613Z,4.63
2023-04-29T10:32:12.562Z,4.90
2023-04-29T10:34:42.295Z,4.22
2023-04-29T10:37:11.658Z,4.50
2023-04-29T10:40:07.719Z,4.60
2023-04-29T10:42:45.267Z,4.10
2023-04-29T10:45:32.833Z,4.05
2023-04-29T10:48:03.189Z,4.63
2023-04-29T10:50:30.710Z,4.13
2023-04-29T10:52:58.624Z,3.88
2023-04-29T10:55:25.934Z,4.03
2023-04-29T10:57:57.273Z,4.15
2023-04-29T11:00:34.966Z,3.80
2023-04-29T11:03:05.606Z,3.92
2023-04-29T11:05:39.010Z,4.85
2023-04-29T11:08:24.336Z,4.82
2023-04-29T11:10:54.730Z,4.22
2023-04-29T11:13:23.883Z,3.80
2023-04-29T11:15:52.668Z,3.78
2023-04-29T11:18:19.589Z,4.75
2023-04-29T11:21:12.844Z,4.10
2023-04-29T11:23:45.185Z,4.97
2023-04-29T11:26:13.098Z,4.68
2023-04-29T11:28:43.448Z,4.25
2023-04-29T11:31:10.346Z,4.30
2023-04-29T11:33:37.222Z,3.70
2023-04-29T11:36:06.690Z,3.97
2023-04-29T11:38:33.513Z,4.43
2023-04-29T11:41:00.767Z,3.90
2023-04-29T11:43:27.570Z,4.10
2023-04-29T11:45:54.561Z,3.67
2023-04-29T11:48:25.768Z,3.92
2023-04-29T11:50:56.626Z,4.80
2023-04-29T11:53:25.978Z,4.22
2023-04-29T11:55:56.270Z,3.47
2023-04-29T11:58:25.193Z,3.38
2023-04-29T12:00:53.312Z,4.30
2023-04-29T12:03:21.155Z,3.90
2023-04-29T12:05:50.774Z,3.10
2023-04-29T12:08:28.898Z,3.60
2023-04-29T12:10:58.085Z,3.90
2023-04-29T12:13:32.043Z,4.43
2023-04-29T12:15:59.419Z,4.00
2023-04-29T12:18:30.201Z,3.92
2023-04-29T12:20:57.214Z,3.80
2023-04-29T12:23:28.428Z,4.00
2023-04-29T12:26:00.323Z,3.55
2023-04-29T12:28:27.530Z,3.60
2023-04-29T12:30:55.456Z,4.15
2023-04-29T12:33:24.420Z,3.40
2023-04-29T12:36:00.207Z,3.72
2023-04-29T12:38:29.722Z,3.78
2023-04-29T12:40:58.908Z,4.53
2023-04-29T12:43:29.182Z,3.88
2023-04-29T12:48:58.658Z,4.28
2023-04-29T12:51:25.432Z,3.83
2023-04-29T12:53:54.747Z,3.88
2023-04-29T12:56:22.036Z,3.57
2023-04-29T12:58:48.815Z,4.80
2023-04-29T13:01:18.441Z,3.92
2023-04-29T13:03:45.602Z,4.00
2023-04-29T13:06:12.673Z,4.65
2023-04-29T13:08:39.386Z,5.07
2023-04-29T13:11:07.518Z,4.50
2023-04-29T13:13:34.291Z,3.85
2023-04-29T13:16:00.989Z,3.65
2023-04-29T13:18:27.742Z,3.80
2023-04-29T13:20:54.632Z,3.30
2023-04-29T13:23:21.554Z,3.30
2023-04-29T13:25:50.081Z,3.80
2023-04-29T13:28:17.028Z,3.90
2023-04-29T13:30:43.772Z,3.83
2023-04-29T13:33:12.640Z,3.90
2023-04-29T13:35:41.643Z,4.32
2023-04-29T13:38:09.025Z,3.78
2023-04-29T13:40:39.341Z,4.13
2023-04-29T13:43:13.813Z,4.28
2023-04-29T13:45:45.546Z,3.97
2023-04-29T13:48:37.646Z,4.80
2023-04-29T13:58:58.285Z,3.85
2023-04-29T14:01:48.140Z,3.70
2023-04-29T14:04:03.763Z,3.80
2023-04-29T14:06:32.344Z,3.72
2023-04-29T14:09:00.515Z,4.28
2023-04-29T14:11:28.668Z,3.87
2023-04-29T14:13:55.396Z,4.95
2023-04-29T14:16:22.100Z,4.82
2023-04-29T14:18:48.846Z,4.60
2023-04-29T14:21:16.249Z,4.60
2023-04-29T14:23:42.936Z,5.28
2023-04-29T14:28:39.261Z,4.47
2023-04-29T14:31:06.281Z,4.82
2023-04-29T14:33:33.049Z,5.05
2023-04-29T14:36:00.993Z,4.10
2023-04-29T14:38:27.712Z,4.60
2023-04-29T14:40:54.438Z,4.10
2023-04-29T14:43:21.143Z,4.07
2023-04-29T14:45:48.322Z,4.18
2023-04-29T14:48:15.075Z,4.45
2023-04-29T14:50:41.736Z,4.05
2023-04-29T14:53:08.780Z,4.20
2023-04-29T14:55:35.521Z,5.20
2023-04-29T14:58:04.953Z,5.25
2023-04-29T15:00:32.216Z,4.72
2023-04-29T15:02:59.256Z,7.50
2023-04-29T15:05:26.136Z,7.70
2023-04-29T15:07:52.921Z,7.78
2023-04-29T15:10:19.657Z,5.20
2023-04-29T15:12:46.329Z,5.18
2023-04-29T15:15:13.020Z,4.10
2023-04-29T15:17:39.925Z,3.83
2023-04-29T15:20:07.673Z,4.43
2023-04-29T15:22:34.353Z,4.57
2023-04-29T15:25:01.247Z,3.95
2023-04-29T15:27:28.672Z,5.97
2023-04-29T15:29:57.394Z,5.18
2023-04-29T15:32:31.629Z,5.05
2023-04-29T15:35:02.540Z,4.78
2023-04-29T15:37:29.761Z,6.38
2023-04-29T15:40:01.584Z,9.60
2023-04-29T15:42:28.544Z,5.70
2023-04-29T15:44:55.312Z,5.20
2023-04-29T15:47:23.448Z,4.93
2023-04-29T15:49:53.589Z,5.45
2023-04-29T15:54:47.050Z,4.70
2023-04-29T15:57:14.046Z,5.60
2023-04-29T15:59:42.375Z,4.75
2023-04-29T16:02:10.945Z,5.18
2023-04-29T16:04:38.633Z,5.35
2023-04-29T16:07:07.074Z,5.60
2023-04-29T16:09:35.905Z,5.10
2023-04-29T16:12:02.605Z,5.07
2023-04-29T16:14:30.024Z,5.28
2023-04-29T16:16:56.929Z,4.90
2023-04-29T16:19:23.753Z,4.88
2023-04-29T16:21:50.430Z,5.28
2023-04-29T16:24:17.201Z,5.47
2023-04-29T16:26:44.024Z,5.60
2023-04-29T16:29:12.505Z,5.45
2023-04-29T16:31:39.883Z,5.07
2023-04-29T16:34:06.662Z,5.70
2023-04-29T16:36:33.726Z,5.75
2023-04-29T16:39:00.574Z,6.35
2023-04-29T16:41:27.534Z,5.85
2023-04-29T16:43:54.242Z,6.20
2023-04-29T16:46:21.732Z,6.55
2023-04-29T16:48:51.330Z,7.40
2023-04-29T16:51:20.794Z,7.40
2023-04-29T16:53:47.459Z,7.30
2023-04-29T16:56:14.376Z,7.85
2023-04-29T16:58:41.208Z,8.90
2023-04-29T17:01:08.170Z,11.93
2023-04-29T17:03:35.671Z,11.75
2023-04-29T17:06:02.917Z,13.85
2023-04-29T17:08:29.733Z,14.52
2023-04-29T17:10:56.466Z,13.82
2023-04-29T17:13:23.236Z,13.85
2023-04-29T17:15:50.124Z,12.63
2023-04-29T17:18:16.861Z,11.77
2023-04-29T17:20:43.801Z,11.23
2023-04-29T17:23:12.645Z,10.50
2023-04-29T17:25:42.295Z,13.85
2023-04-29T17:28:09.037Z,16.17
2023-04-29T17:30:35.807Z,16.42
2023-04-29T17:33:07.636Z,17.65
2023-04-29T17:35:35.455Z,20.38
2023-04-29T17:38:07.441Z,19.70
2023-04-29T17:40:35.703Z,20.25
2023-04-29T17:43:02.576Z,17.98
2023-04-29T17:45:40.022Z,20.20
2023-04-29T17:48:06.892Z,29.05
2023-04-29T17:50:34.349Z,30.42
2023-04-29T17:53:03.668Z,26.08
2023-04-29T17:55:30.993Z,26.38
2023-04-29T17:58:00.545Z,26.23
2023-04-29T18:00:31.222Z,25.25
2023-04-29T18:02:58.198Z,24.15
2023-04-29T18:05:25.384Z,24.30
2023-04-29T18:07:52.252Z,26.55
2023-04-29T18:10:19.242Z,43.92
2023-04-29T18:12:47.362Z,47.08
2023-04-29T18:17:58.548Z,30.35
2023-04-29T18:20:25.431Z,21.70
2023-04-29T18:22:52.109Z,21.67
2023-04-29T18:25:21.200Z,22.77
2023-04-29T18:27:48.032Z,41.30
2023-04-29T18:30:14.859Z,31.75
2023-04-29T18:32:42.112Z,39.92
2023-04-29T18:35:18.982Z,44.63
2023-04-29T18:38:04.346Z,58.80
2023-04-29T18:40:44.132Z,69.53
2023-04-29T18:43:20.465Z,65.07
2023-04-29T18:45:59.941Z,42.30
2023-04-29T18:48:40.520Z,35.23
2023-04-29T18:51:26.264Z,30.08
2023-04-29T18:56:46.420Z,24.13
2023-04-29T18:59:23.431Z,24.80
2023-04-29T19:01:53.288Z,25.13
2023-04-29T19:04:29.198Z,22.75
2023-04-29T19:06:59.895Z,21.23
2023-04-29T19:12:15.119Z,23.02
2023-04-29T19:14:57.944Z,28.05
2023-04-29T19:18:04.663Z,36.92
2023-04-29T19:20:30.167Z,28.55
2023-04-29T19:22:57.050Z,23.35
2023-04-29T19:25:25.924Z,32.80
2023-04-29T19:27:53.216Z,33.50
2023-04-29T19:30:20.261Z,30.65
2023-04-29T19:32:47.592Z,36.60
2023-04-29T19:35:14.453Z,39.00
2023-04-29T19:37:50.447Z,33.22
2023-04-29T19:40:17.323Z,25.95
2023-04-29T19:42:44.385Z,26.65
2023-04-29T19:45:15.079Z,26.77
2023-04-29T19:47:43.510Z,25.40
2023-04-29T19:50:10.497Z,25.00
2023-04-29T19:52:37.289Z,25.27
2023-04-29T19:55:04.949Z,26.95
2023-04-29T19:57:33.096Z,33.05
2023-04-29T19:59:59.875Z,32.50
2023-04-29T20:02:27.073Z,31.67
2023-04-29T20:04:53.876Z,30.77
2023-04-29T20:07:20.695Z,31.95
2023-04-29T20:09:48.432Z,28.98
2023-04-29T20:12:15.170Z,31.42
2023-04-29T20:14:41.930Z,29.52
2023-04-29T20:17:08.746Z,27.42
2023-04-29T20:19:35.514Z,29.73
2023-04-29T20:22:02.437Z,29.17
2023-04-29T20:24:29.286Z,30.83
2023-04-29T20:26:56.077Z,30.77
2023-04-29T20:29:22.977Z,31.48
2023-04-29T20:31:49.730Z,29.45
2023-04-29T20:34:16.484Z,29.40
2023-04-29T20:36:43.260Z,28.80
2023-04-29T20:39:10.083Z,29.70
2023-04-29T20:41:37.056Z,29.70
2023-04-29T20:44:04.442Z,29.00
2023-04-29T20:46:33.079Z,29.75
2023-04-29T20:48:59.804Z,28.33
2023-04-29T20:51:26.974Z,25.33
2023-04-29T20:53:53.874Z,22.02
2023-04-29T20:56:20.741Z,20.30
2023-04-29T20:58:47.491Z,21.85
2023-04-29T21:01:14.336Z,19.98
2023-04-29T21:03:41.518Z,19.00
2023-04-29T21:06:08.436Z,26.83
2023-04-29T21:08:35.169Z,27.48
2023-04-29T21:11:01.976Z,27.65
2023-04-29T21:13:28.647Z,30.55
2023-04-29T21:15:55.353Z,29.73
2023-04-29T21:18:22.212Z,31.02
2023-04-29T21:20:49.022Z,31.67
2023-04-29T21:23:15.744Z,32.30
2023-04-29T21:25:42.437Z,32.83
2023-04-29T21:28:09.145Z,33.15
2023-04-29T21:30:36.050Z,31.92
2023-04-29T21:33:03.459Z,33.97
2023-04-29T21:35:30.717Z,36.13
2023-04-29T21:37:57.522Z,34.40
2023-04-29T21:40:26.422Z,35.75
2023-04-29T21:42:55.275Z,34.45
2023-04-29T21:45:22.146Z,34.35
2023-04-29T21:47:48.992Z,34.90
2023-04-29T21:50:15.843Z,35.65
2023-04-29T21:52:42.932Z,37.22
2023-04-29T21:55:09.883Z,37.20
2023-04-29T21:57:44.538Z,37.08
2023-04-29T22:00:28.239Z,37.13
2023-04-29T22:02:55.111Z,36.13
2023-04-29T22:05:21.802Z,36.22
2023-04-29T22:07:48.495Z,34.42
2023-04-29T22:10:15.349Z,34.90
2023-04-29T22:12:42.022Z,33.60
2023-04-29T22:15:17.052Z,32.83
2023-04-29T22:17:54.332Z,35.10
2023-04-29T22:20:21.269Z,34.55
2023-04-29T22:22:47.958Z,34.75
2023-04-29T22:25:14.785Z,36.25
2023-04-29T22:27:41.650Z,36.25
2023-04-29T22:30:08.936Z,35.55
2023-04-29T22:32:35.946Z,34.33
2023-04-29T22:35:02.715Z,36.22
2023-04-29T22:37:29.522Z,33.72
2023-04-29T22:39:56.934Z,34.00
2023-04-29T22:42:24.070Z,34.40
2023-04-29T22:44:52.139Z,34.40
2023-04-29T22:47:18.839Z,34.97
2023-04-29T22:49:46.351Z,34.90
2023-04-29T22:52:13.258Z,34.95
2023-04-29T22:54:39.968Z,36.50
2023-04-29T22:57:07.465Z,35.65
2023-04-29T22:59:34.294Z,33.97
2023-04-29T23:02:01.050Z,34.55
2023-04-29T23:04:27.825Z,34.95
2023-04-29T23:06:54.577Z,35.17
2023-04-29T23:09:21.428Z,33.13
2023-04-29T23:11:48.173Z,33.67
2023-04-29T23:14:14.954Z,32.65
2023-04-29T23:16:42.684Z,34.13
2023-04-29T23:19:09.382Z,33.33
2023-04-29T23:21:36.155Z,34.10
2023-04-29T23:24:03.030Z,33.20
2023-04-29T23:26:29.711Z,33.65
2023-04-29T23:28:56.435Z,30.33
2023-04-29T23:31:23.201Z,32.00
2023-04-29T23:33:49.955Z,31.65
2023-04-29T23:36:16.925Z,33.05
2023-04-29T23:38:43.758Z,31.40
2023-04-29T23:41:10.463Z,32.25
2023-04-29T23:43:37.267Z,35.70
2023-04-29T23:46:04.150Z,34.47
2023-04-29T23:48:30.991Z,34.50
2023-04-29T23:50:57.779Z,35.63
2023-04-29T23:53:24.466Z,35.17
2023-04-29T23:55:51.371Z,35.90
2023-04-29T23:58:18.138Z,37.25
